Time;durP1;ratioP1;P1;durP2;ratioP2;P2;SDS_P1;SDS_P2;PMS_P1;PMS_P2;Temp;Humidity;BMP_temperature;BMP_pressure;BME280_temperature;BME280_humidity;BME280_pressure;Samples;Min_cycle;Max_cycle;Signal;HPM_P1;HPM_P2
2023/05/27 00:08:39;;;;;;;1999.90;999.90;;;13.20;99.90;;;;;;6659813;88;20313;-80
2023/05/27 00:18:40;;;;;;;1999.90;999.90;;;13.10;99.90;;;;;;6676559;89;20270;-81
2023/05/27 00:28:41;;;;;;;1999.90;999.90;;;12.90;99.90;;;;;;6676021;88;20191;-80
2023/05/27 00:38:42;;;;;;;1999.90;999.90;;;12.80;99.90;;;;;;6678807;89;20196;-80
2023/05/27 00:48:42;;;;;;;1999.90;999.90;;;12.60;99.90;;;;;;6676382;88;20221;-80
2023/05/27 00:58:43;;;;;;;1999.90;999.90;;;12.50;99.90;;;;;;6689197;88;20203;-79
2023/05/27 01:09:02;;;;;;;1999.90;999.90;;;12.50;99.90;;;;;;6692816;88;20198;-79
2023/05/27 01:19:11;;;;;;;1999.90;999.90;;;12.20;99.90;;;;;;6697575;88;20217;-79
2023/05/27 01:29:12;;;;;;;1999.90;999.90;;;12.10;99.90;;;;;;6694877;88;20670;-79
2023/05/27 01:39:13;;;;;;;1999.90;999.90;;;11.90;99.90;;;;;;6678938;88;20211;-80
2023/05/27 01:49:14;;;;;;;1999.90;999.90;;;11.70;99.90;;;;;;6675400;88;20509;-79
2023/05/27 01:59:14;;;;;;;1999.90;999.90;;;11.60;99.90;;;;;;6676801;88;20183;-79
2023/05/27 02:09:15;;;;;;;1999.90;999.90;;;11.50;99.90;;;;;;6664363;89;20188;-79
2023/05/27 02:19:16;;;;;;;1999.90;999.90;;;11.40;99.90;;;;;;6693973;88;20224;-81
2023/05/27 02:29:16;;;;;;;1999.90;999.90;;;11.30;99.90;;;;;;6709490;88;20210;-79
2023/05/27 02:39:17;;;;;;;1999.90;999.90;;;11.20;99.90;;;;;;6687071;88;20192;-80
2023/05/27 02:49:18;;;;;;;1999.90;999.90;;;11.00;99.90;;;;;;6713975;88;20191;-79
2023/05/27 02:59:18;;;;;;;1999.90;999.90;;;11.00;99.90;;;;;;6676569;89;20222;-78
2023/05/27 03:09:19;;;;;;;1999.90;999.90;;;10.80;99.90;;;;;;6724466;88;20230;-81
2023/05/27 03:19:20;;;;;;;1999.90;999.90;;;10.70;99.90;;;;;;6715265;88;20335;-79
2023/05/27 03:29:20;;;;;;;1999.90;999.90;;;10.70;99.90;;;;;;6728884;88;20295;-78
2023/05/27 03:39:21;;;;;;;1999.90;999.90;;;10.70;99.90;;;;;;6704243;88;20278;-77
2023/05/27 03:49:21;;;;;;;1999.90;999.90;;;10.30;99.90;;;;;;6681041;89;20305;-79
2023/05/27 03:59:22;;;;;;;1999.90;999.90;;;9.90;99.90;;;;;;6706217;88;20208;-79
2023/05/27 04:09:22;;;;;;;1999.90;999.90;;;10.00;99.90;;;;;;6680767;88;20221;-79
2023/05/27 04:19:23;;;;;;;1999.90;999.90;;;9.80;99.90;;;;;;6685528;88;20252;-79
2023/05/27 04:29:23;;;;;;;1999.90;999.90;;;9.70;99.90;;;;;;6677791;88;20237;-80
2023/05/27 04:39:25;;;;;;;1999.90;999.90;;;9.70;99.90;;;;;;6766163;88;20290;-80
2023/05/27 04:49:26;;;;;;;1999.90;999.90;;;10.00;99.90;;;;;;6707656;87;20192;-81
2023/05/27 04:59:45;;;;;;;1999.90;999.90;;;10.20;99.90;;;;;;6683057;88;20230;-79
2023/05/27 05:09:46;;;;;;;1999.90;999.90;;;10.40;99.90;;;;;;6665459;88;20647;-79
2023/05/27 05:19:46;;;;;;;1999.90;999.90;;;10.40;99.90;;;;;;6680432;89;20245;-80
2023/05/27 05:29:47;;;;;;;1999.90;999.90;;;10.50;99.90;;;;;;6707653;88;20198;-78
2023/05/27 05:39:47;;;;;;;1999.90;999.90;;;10.70;99.90;;;;;;6713819;88;20195;-79
2023/05/27 05:49:48;;;;;;;1999.90;999.90;;;10.90;99.90;;;;;;6692207;88;20750;-77
2023/05/27 05:59:48;;;;;;;1999.90;999.90;;;11.20;99.90;;;;;;6721127;88;20279;-80
2023/05/27 06:09:49;;;;;;;1999.90;999.90;;;12.00;99.90;;;;;;6694488;88;20218;-79
2023/05/27 06:19:50;;;;;;;1999.90;999.90;;;13.20;99.90;;;;;;6671576;89;20217;-79
2023/05/27 06:29:50;;;;;;;1999.90;999.90;;;13.70;99.90;;;;;;6688782;89;20272;-79
2023/05/27 06:39:51;;;;;;;1999.90;999.90;;;14.40;99.90;;;;;;6714083;88;20195;-79
2023/05/27 06:49:51;;;;;;;1999.90;999.90;;;14.80;99.90;;;;;;6677978;89;20627;-80
2023/05/27 06:59:52;;;;;;;1999.90;999.90;;;15.40;99.90;;;;;;6755476;88;20280;-79
2023/05/27 07:09:53;;;;;;;1999.90;999.90;;;16.10;99.90;;;;;;6694631;88;20275;-80
2023/05/27 07:19:54;;;;;;;1999.90;999.90;;;16.60;99.90;;;;;;6688069;88;20745;-80
2023/05/27 07:39:58;;;;;;;1999.90;999.90;;;17.00;99.90;;;;;;6668359;89;20256;-77
2023/05/27 07:49:58;;;;;;;1999.90;999.90;;;17.60;99.90;;;;;;6669965;89;20210;-79
2023/05/27 07:59:59;;;;;;;1999.90;999.90;;;17.80;99.90;;;;;;6676080;89;21018;-78
2023/05/27 08:09:59;;;;;;;1999.90;999.90;;;18.80;99.90;;;;;;6682484;88;20202;-80
2023/05/27 08:20:00;;;;;;;1999.90;999.90;;;20.30;99.40;;;;;;6671539;89;20222;-79
2023/05/27 08:30:01;;;;;;;1999.90;999.90;;;20.50;97.90;;;;;;6669088;88;20379;-79
2023/05/27 08:40:01;;;;;;;1999.90;999.90;;;19.30;98.60;;;;;;6683470;88;20257;-79
2023/05/27 08:50:03;;;;;;;1999.90;999.90;;;20.60;98.20;;;;;;6669318;89;20195;-79
2023/05/27 09:00:13;;;;;;;1999.90;999.90;;;22.10;96.80;;;;;;6672772;88;20591;-78
2023/05/27 09:10:14;;;;;;;1999.90;999.90;;;22.00;95.60;;;;;;6683880;88;20242;-78
2023/05/27 09:20:15;;;;;;;1999.90;999.90;;;22.30;95.30;;;;;;6681206;88;20239;-79
2023/05/27 09:30:19;;;;;;;1999.90;999.90;;;23.60;94.90;;;;;;6684569;88;20640;-79
2023/05/27 09:40:20;;;;;;;1999.90;999.90;;;24.40;93.60;;;;;;6682089;88;20203;-78
2023/05/27 09:50:21;;;;;;;1999.90;999.90;;;25.40;91.20;;;;;;6680252;88;20215;-79
2023/05/27 10:00:23;;;;;;;1999.90;999.90;;;24.20;91.40;;;;;;6681313;88;20802;-78
2023/05/27 10:10:24;;;;;;;1999.90;999.90;;;25.40;90.30;;;;;;6680785;87;20603;-79
2023/05/27 10:20:30;;;;;;;1999.90;999.90;;;25.50;90.40;;;;;;6679135;88;20214;-80
2023/05/27 10:30:43;;;;;;;1999.90;999.90;;;27.00;87.30;;;;;;6679892;88;20193;-78
2023/05/27 10:40:46;;;;;;;1999.90;999.90;;;26.60;84.30;;;;;;6648295;88;20198;-80
2023/05/27 10:50:56;;;;;;;1999.90;999.90;;;28.00;81.10;;;;;;6646259;88;20806;-79
2023/05/27 11:00:58;;;;;;;1999.90;999.90;;;28.40;81.70;;;;;;6646571;89;20201;-78
2023/05/27 11:11:06;;;;;;;1999.90;999.90;;;29.40;78.30;;;;;;6656543;89;20240;-79
2023/05/27 11:21:09;;;;;;;1999.90;999.90;;;29.00;75.10;;;;;;6656885;89;20207;-79
2023/05/27 11:31:09;;;;;;;1999.90;999.90;;;28.80;73.70;;;;;;6645237;89;20208;-77
2023/05/27 11:41:10;;;;;;;1999.90;999.90;;;28.90;72.90;;;;;;6647223;89;20211;-77
2023/05/27 11:51:11;;;;;;;1999.90;999.90;;;28.40;72.50;;;;;;6661145;88;20217;-78
2023/05/27 12:01:12;;;;;;;1999.90;999.90;;;27.80;72.00;;;;;;6646739;89;20414;-79
2023/05/27 12:11:12;;;;;;;1999.90;999.90;;;29.00;71.80;;;;;;6647391;89;20258;-78
2023/05/27 12:21:15;;;;;;;1999.90;999.90;;;29.90;68.20;;;;;;6646765;89;20274;-78
2023/05/27 12:31:16;;;;;;;1999.90;999.90;;;28.60;68.30;;;;;;6646949;88;20207;-78
2023/05/27 12:41:17;;;;;;;1999.90;999.90;;;30.20;68.40;;;;;;6646654;89;20204;-79
2023/05/27 12:51:17;;;;;;;1999.90;999.90;;;30.60;66.50;;;;;;6646317;89;20315;-78
2023/05/27 13:01:18;;;;;;;1999.90;999.90;;;30.80;64.50;;;;;;6645832;89;20326;-78
2023/05/27 13:11:18;;;;;;;1999.90;999.90;;;30.70;63.80;;;;;;6646238;89;20213;-79
2023/05/27 13:21:19;;;;;;;1999.90;999.90;;;31.10;65.20;;;;;;6645903;89;20219;-78
2023/05/27 13:42:21;;;;;;;1999.90;999.90;;;31.40;60.90;;;;;;6681436;88;20179;-81
2023/05/27 13:52:22;;;;;;;1999.90;999.90;;;31.50;61.50;;;;;;6682224;89;20212;-81
2023/05/27 14:02:22;;;;;;;1999.90;999.90;;;32.10;63.30;;;;;;6682737;88;20200;-81
2023/05/27 14:12:24;;;;;;;1999.90;999.90;;;31.20;60.60;;;;;;6696413;88;20518;-81
2023/05/27 14:22:25;;;;;;;1999.90;999.90;;;31.20;59.90;;;;;;6680324;88;20205;-81
2023/05/27 14:32:25;;;;;;;1999.90;999.90;;;30.30;59.70;;;;;;6678821;89;20183;-81
2023/05/27 14:42:26;;;;;;;1999.90;999.90;;;29.00;58.70;;;;;;6695457;88;20203;-81
2023/05/27 14:52:26;;;;;;;1999.90;999.90;;;29.40;58.60;;;;;;6678518;89;20223;-81
2023/05/27 15:02:27;;;;;;;1999.90;999.90;;;28.60;58.50;;;;;;6678630;89;20191;-80
2023/05/27 15:12:40;;;;;;;1999.90;999.90;;;29.90;58.70;;;;;;6680630;89;20243;-81
2023/05/27 15:22:40;;;;;;;1999.90;999.90;;;29.70;58.50;;;;;;6681436;88;20729;-81
2023/05/27 15:32:41;;;;;;;1999.90;999.90;;;30.00;59.20;;;;;;6681005;88;20224;-81
2023/05/27 15:42:42;;;;;;;1999.90;999.90;;;29.80;57.70;;;;;;6681428;88;20248;-81
2023/05/27 15:52:42;;;;;;;1999.90;999.90;;;29.20;57.10;;;;;;6681041;89;20241;-81
2023/05/27 16:02:43;;;;;;;1999.90;999.90;;;29.70;57.50;;;;;;6678090;89;20246;-81
2023/05/27 16:12:43;;;;;;;1999.90;999.90;;;29.80;57.50;;;;;;6678565;88;20346;-81
2023/05/27 16:22:44;;;;;;;1999.90;999.90;;;29.70;56.80;;;;;;6668713;88;20203;-81
2023/05/27 16:32:44;;;;;;;1999.90;999.90;;;29.80;57.40;;;;;;6665471;88;20765;-80
2023/05/27 16:42:45;;;;;;;1999.90;999.90;;;28.20;57.80;;;;;;6664367;88;20180;-80
2023/05/27 16:52:45;;;;;;;1999.90;999.90;;;28.10;58.20;;;;;;6678139;88;20195;-80
2023/05/27 17:02:46;;;;;;;1999.90;999.90;;;28.20;58.20;;;;;;6670289;88;20217;-80
2023/05/27 17:12:46;;;;;;;1999.90;999.90;;;28.00;56.70;;;;;;6679370;89;20290;-80
2023/05/27 17:22:47;;;;;;;1999.90;999.90;;;27.60;57.30;;;;;;6691902;88;20175;-80
2023/05/27 17:32:47;;;;;;;1999.90;999.90;;;27.60;56.40;;;;;;6677037;89;21238;-80
2023/05/27 17:42:48;;;;;;;1999.90;999.90;;;27.50;55.90;;;;;;6691647;88;20236;-80
2023/05/27 17:52:49;;;;;;;1999.90;999.90;;;27.20;56.80;;;;;;6678838;88;20187;-81
2023/05/27 18:02:49;;;;;;;1999.90;999.90;;;27.40;57.00;;;;;;6681439;89;20198;-81
2023/05/27 18:12:51;;;;;;;1999.90;999.90;;;27.10;57.40;;;;;;6692862;88;20257;-80
2023/05/27 18:22:52;;;;;;;1999.90;999.90;;;26.20;57.70;;;;;;6677263;88;20207;-81
2023/05/27 18:32:52;;;;;;;1999.90;999.90;;;25.70;59.20;;;;;;6678849;89;20225;-80
2023/05/27 18:42:53;;;;;;;1999.90;999.90;;;25.30;59.00;;;;;;6687972;89;20203;-80
2023/05/27 18:52:53;;;;;;;1999.90;999.90;;;24.90;59.40;;;;;;6695814;88;20212;-81
2023/05/27 19:02:54;;;;;;;1999.90;999.90;;;24.40;62.00;;;;;;6694478;88;20251;-81
2023/05/27 19:12:54;;;;;;;1999.90;999.90;;;23.60;63.70;;;;;;6696380;88;20207;-81
2023/05/27 19:22:55;;;;;;;1999.90;999.90;;;23.00;66.00;;;;;;6682227;89;20386;-82
2023/05/27 19:43:57;;;;;;;1999.90;999.90;;;22.10;67.90;;;;;;6689676;88;20164;-81
2023/05/27 19:53:59;;;;;;;1999.90;999.90;;;21.40;69.20;;;;;;6690585;89;20261;-81
2023/05/27 20:04:00;;;;;;;1999.90;999.90;;;21.00;70.70;;;;;;6694504;88;20214;-82
2023/05/27 20:14:00;;;;;;;1999.90;999.90;;;20.80;71.10;;;;;;6727716;88;20243;-81
2023/05/27 20:24:01;;;;;;;1999.90;999.90;;;20.20;73.50;;;;;;6693806;88;20881;-82
2023/05/27 20:34:01;;;;;;;1999.90;999.90;;;19.60;76.10;;;;;;6692901;89;20190;-82
2023/05/27 20:44:02;;;;;;;1999.90;999.90;;;19.30;77.80;;;;;;6692289;89;20203;-82
2023/05/27 20:54:03;;;;;;;1999.90;999.90;;;19.00;78.70;;;;;;6691027;89;20164;-82
2023/05/27 21:04:07;;;;;;;1999.90;999.90;;;18.60;79.10;;;;;;6654750;89;20246;-82
2023/05/27 21:14:07;;;;;;;1999.90;999.90;;;18.30;81.20;;;;;;6742838;88;20209;-81
2023/05/27 21:24:08;;;;;;;1999.90;999.90;;;18.00;82.50;;;;;;6740723;88;20178;-81
2023/05/27 21:34:08;;;;;;;1999.90;999.90;;;17.80;83.30;;;;;;6719318;88;20199;-82
2023/05/27 21:44:09;;;;;;;1999.90;999.90;;;17.70;84.20;;;;;;6723256;88;20673;-81
2023/05/27 21:54:10;;;;;;;1999.90;999.90;;;17.40;85.30;;;;;;6722580;88;20842;-81
2023/05/27 22:04:11;;;;;;;1999.90;999.90;;;17.20;86.40;;;;;;6730553;88;20219;-81
2023/05/27 22:14:11;;;;;;;1999.90;999.90;;;16.90;88.40;;;;;;6676971;89;20211;-80
2023/05/27 22:24:12;;;;;;;1999.90;999.90;;;16.70;90.10;;;;;;6684018;89;20314;-80
2023/05/27 22:34:12;;;;;;;1999.90;999.90;;;16.50;90.60;;;;;;6682376;89;20208;-80
2023/05/27 22:44:13;;;;;;;1999.90;999.90;;;16.30;91.70;;;;;;6655119;88;20205;-81
2023/05/27 22:54:13;;;;;;;1999.90;999.90;;;16.10;92.00;;;;;;6662090;89;20214;-80
2023/05/27 23:04:14;;;;;;;1999.90;999.90;;;15.80;93.30;;;;;;6660398;89;20238;-80
2023/05/27 23:14:14;;;;;;;1999.90;999.90;;;15.40;95.70;;;;;;6681925;89;20212;-81
2023/05/27 23:24:15;;;;;;;1999.90;999.90;;;15.20;96.70;;;;;;6685758;89;20542;-81
2023/05/27 23:34:17;;;;;;;1999.90;999.90;;;15.10;98.10;;;;;;6682654;89;20632;-81
2023/05/27 23:44:17;;;;;;;1999.90;999.90;;;15.00;99.90;;;;;;6686441;88;20183;-81
2023/05/27 23:54:18;;;;;;;1999.90;999.90;;;14.80;99.90;;;;;;6696071;88;20549;-81
